Aeroporto :
LOGIN :

Iscrizione | Disclaimer

   EN    FR    IT 

 










Sommario :    VFR   VFR Marginale   IFR   IFR Intensivo   IFR Molto Intensivo
Visibilità : 
Base nubi : 
>= 8 km
>= 3000ft
5 / 8 km
1000 / 3000 ft
1500m / 5 km
500 / 1000 ft
800 / 1500m
200 / 500 ft
< 800m
< 200 ft
Simboli :   Temporali  Nebbia  Neve Forte  Precipitazioni Forti  Vento > 20 kt
SIGMETs :   Varie  Temporali  Ghiacco  Turbolenza  Onda orograficha  Ceneri Vulcaniche






- Altitudine del aeroporto : 1017 ft


LFSL - Brive Souillac

ULTIMO METAR :
  • 140600Z AUTO 17008KT 140V210 9999 -DZ BKN016 BKN045 BKN058 06/05 Q0999 TEMPO 3000 RA BKN003 SCT015TCU

METARs OBSOLETI :
  • 140530Z AUTO 17006KT 140V200 9999 -RA SCT003 OVC017 06/06 Q0999 NOSIG
  • 140500Z AUTO 17005KT 9999 BKN003 BKN015 BKN025 05/05 Q0999 BECMG SCT010 BKN020
  • 140430Z AUTO 17005KT 9999 -RA FEW006/// BKN028/// OVC039/// ///TCU 05/05 Q0999 BECMG SCT010 BKN020
  • 140400Z AUTO 17004KT 140V200 9999 SCT031/// SCT047/// BKN072/// ///TCU 05/05 Q0999 TEMPO 3000 RA BECMG SCT010 BKN020
  • 140330Z AUTO 13005KT 9999 FEW036/// SCT047/// OVC070/// ///TCU 05/05 Q0998 TEMPO 3000 RA BECMG SCT010 BKN020

TAF TAF LFSL
Valido dal 14 a 06 ore il 14 a 15 ore UTC


140500Z 1406/1415 19005KT 9999 BKN020
TEMPO 1406/1408 3000 RA BKN003 SCT015TCU



MetMap, La meteo Aeronautica in un colpo d'occhio ! - Copyright ORBIFLY Dicembre 2007 - Disclaimer

ORBIFLY MET'MAP TEAM :

Programmazione e sviluppo : Alexandra Zaïnal
Concezione e sviluppo : Baudouin d'Aumeries
Co-Programmazione e sviluppo : Marc-Olivier Méhu
Supporto tecnico e logistico : Manuel Goepfert
Aiuto per la traduzione : Arnaldo La Scala

Contatto : metmap@orbifly.com




FONTI E CREDITI :

   NOAA